Time;durP1;ratioP1;P1;durP2;ratioP2;P2;SDS_P1;SDS_P2;PMS_P1;PMS_P2;Temp;Humidity;BMP_temperature;BMP_pressure;BME280_temperature;BME280_humidity;BME280_pressure;Samples;Min_cycle;Max_cycle;Signal;HPM_P1;HPM_P2
2022/08/16 00:02:14;;;;;;;14.48;6.35;;;;;;;22.24;45.19;100052.53;6228031;22;20020;-65
2022/08/16 00:04:39;;;;;;;10.95;7.30;;;;;;;22.31;44.83;100050.81;6227830;22;20031;-66
2022/08/16 00:07:04;;;;;;;10.30;5.85;;;;;;;22.24;45.27;100052.53;6175802;22;20094;-66
2022/08/16 00:09:29;;;;;;;13.57;6.10;;;;;;;22.24;45.07;100052.53;6227574;22;20026;-65
2022/08/16 00:11:54;;;;;;;17.02;6.53;;;;;;;22.24;45.13;100066.94;6174785;22;20020;-64
2022/08/16 00:14:23;;;;;;;11.68;5.88;;;;;;;22.23;45.12;100059.00;6174091;22;20015;-67
2022/08/16 00:16:48;;;;;;;10.23;6.20;;;;;;;22.21;45.02;100061.88;6201016;22;20023;-66
2022/08/16 00:19:22;;;;;;;13.13;6.80;;;;;;;22.28;44.83;100049.28;6223259;22;20019;-67
2022/08/16 00:21:47;;;;;;;10.50;6.53;;;;;;;22.31;44.70;100046.25;6199851;22;20019;-67
2022/08/16 00:24:15;;;;;;;13.95;5.70;;;;;;;22.30;44.52;100052.69;6201863;22;20018;-62
2022/08/16 00:26:41;;;;;;;13.27;6.00;;;;;;;22.20;44.88;100051.19;6203277;22;20455;-67
2022/08/16 00:29:06;;;;;;;9.00;5.97;;;;;;;22.17;44.87;100055.09;6177440;22;20434;-67
2022/08/16 00:31:31;;;;;;;9.68;5.95;;;;;;;22.19;44.83;100057.66;6229863;22;20041;-73
2022/08/16 00:33:56;;;;;;;11.80;6.35;;;;;;;22.25;44.76;100046.91;6152574;22;20016;-65
2022/08/16 00:36:21;;;;;;;9.25;5.93;;;;;;;22.25;44.31;100055.06;6177580;22;20091;-65
2022/08/16 00:38:46;;;;;;;10.80;6.10;;;;;;;22.25;44.34;100049.63;6177552;22;20046;-65
2022/08/16 00:41:11;;;;;;;8.48;6.07;;;;;;;22.28;44.33;100048.44;6230015;22;20450;-64
2022/08/16 00:43:35;;;;;;;11.50;6.40;;;;;;;22.28;44.59;100053.88;6202651;22;20487;-66
2022/08/16 00:46:06;;;;;;;17.85;6.50;;;;;;;22.17;44.96;100060.53;6176687;22;20343;-65
2022/08/16 00:48:32;;;;;;;14.85;6.75;;;;;;;22.18;44.84;100061.38;6201857;22;20462;-63
2022/08/16 00:51:02;;;;;;;12.93;6.85;;;;;;;22.14;45.14;100062.75;6229810;22;20462;-62
2022/08/16 00:53:26;;;;;;;9.65;5.70;;;;;;;22.19;44.72;100044.91;6202466;22;20015;-64
2022/08/16 00:55:53;;;;;;;12.00;6.30;;;;;;;22.20;44.81;100059.34;6177186;22;20110;-64
2022/08/16 00:58:21;;;;;;;14.23;6.45;;;;;;;22.19;44.79;100060.38;6177345;22;20073;-64
2022/08/16 01:00:47;;;;;;;10.65;6.55;;;;;;;22.09;45.28;100058.69;6201693;22;20346;-63
2022/08/16 01:03:14;;;;;;;11.02;6.22;;;;;;;22.12;45.34;100059.38;6202286;22;20356;-63
2022/08/16 01:05:41;;;;;;;13.18;6.03;;;;;;;22.07;44.98;100063.44;6229702;22;20355;-65
2022/08/16 01:08:08;;;;;;;8.57;6.18;;;;;;;22.04;45.51;100062.94;6177452;22;20064;-65
2022/08/16 01:10:34;;;;;;;15.10;6.28;;;;;;;21.99;46.17;100065.34;6230067;22;20446;-74
2022/08/16 01:13:05;;;;;;;13.13;6.55;;;;;;;21.91;46.19;100077.00;6229511;22;20477;-65
2022/08/16 01:15:31;;;;;;;14.13;6.07;;;;;;;21.77;46.49;100064.16;6202073;22;20020;-69
2022/08/16 01:17:57;;;;;;;14.23;6.47;;;;;;;21.60;46.91;100067.88;6229330;22;20062;-69
2022/08/16 01:20:26;;;;;;;21.08;6.63;;;;;;;21.57;46.96;100063.63;6202318;22;20046;-61
2022/08/16 01:23:34;;;;;;;9.82;6.85;;;;;;;21.71;46.47;100075.69;6176946;22;20061;-61
2022/08/16 01:25:59;;;;;;;10.32;6.00;;;;;;;21.58;47.40;100068.03;6004615;23;20018;-62
2022/08/16 01:28:25;;;;;;;12.75;6.45;;;;;;;21.54;46.71;100077.56;6052321;23;20085;-64
2022/08/16 01:30:54;;;;;;;12.43;6.13;;;;;;;21.51;46.94;100071.63;6028793;23;20029;-62
2022/08/16 01:33:20;;;;;;;10.13;6.22;;;;;;;21.55;46.87;100073.84;6028726;23;20014;-64
2022/08/16 01:36:08;;;;;;;8.82;6.18;;;;;;;21.60;46.44;100076.88;6028379;23;20426;-62
2022/08/16 01:38:37;;;;;;;8.10;5.80;;;;;;;21.58;46.61;100072.63;6047949;23;20100;-68
2022/08/16 01:41:15;;;;;;;10.38;6.00;;;;;;;21.60;46.45;100070.59;6024319;23;20017;-67
2022/08/16 01:43:43;;;;;;;8.98;5.70;;;;;;;21.61;46.94;100077.72;6050736;23;20013;-63
2022/08/16 01:46:20;;;;;;;8.05;4.80;;;;;;;21.59;46.61;100080.59;6075926;23;20933;-67
2022/08/16 01:48:46;;;;;;;9.35;5.47;;;;;;;21.63;46.28;100071.09;6052970;23;20028;-67
2022/08/16 01:51:14;;;;;;;8.32;6.03;;;;;;;21.64;46.21;100077.38;6052363;23;20022;-67
2022/08/16 01:53:39;;;;;;;9.32;5.50;;;;;;;21.67;46.13;100071.63;6053154;23;20022;-64
2022/08/16 01:56:14;;;;;;;9.18;5.80;;;;;;;21.63;46.07;100070.25;6006316;23;20014;-69
2022/08/16 01:58:39;;;;;;;14.05;6.10;;;;;;;21.59;46.34;100075.16;6054190;22;20022;-66
2022/08/16 02:01:06;;;;;;;11.95;5.68;;;;;;;21.50;46.87;100075.34;6151670;22;20454;-64
2022/08/16 02:03:31;;;;;;;9.25;5.07;;;;;;;21.47;47.07;100075.66;6228453;22;20451;-66
2022/08/16 02:05:57;;;;;;;9.82;5.80;;;;;;;21.45;47.49;100070.41;6176877;22;20497;-65
2022/08/16 02:08:22;;;;;;;11.15;6.25;;;;;;;21.41;47.44;100079.06;6176873;22;20351;-64
2022/08/16 02:10:47;;;;;;;10.93;5.95;;;;;;;21.38;47.20;100081.09;6151317;22;20012;-65
2022/08/16 02:13:12;;;;;;;12.15;6.15;;;;;;;21.31;47.29;100071.09;6201517;22;20020;-65
2022/08/16 02:15:40;;;;;;;11.95;5.72;;;;;;;21.28;47.78;100080.41;6201575;22;20362;-65
2022/08/16 02:18:06;;;;;;;10.07;5.88;;;;;;;21.22;48.10;100080.25;6202073;22;20339;-64
2022/08/16 02:20:36;;;;;;;11.18;5.40;;;;;;;21.19;48.20;100089.56;6228712;22;20462;-70
2022/08/16 02:23:01;;;;;;;10.43;5.47;;;;;;;21.29;48.33;100089.41;6199902;22;20015;-69
2022/08/16 02:25:27;;;;;;;12.13;6.00;;;;;;;21.24;48.45;100086.31;6176519;22;20101;-67
2022/08/16 02:27:52;;;;;;;11.48;5.93;;;;;;;21.26;47.87;100087.00;6150568;22;20016;-66
2022/08/16 02:30:23;;;;;;;7.85;5.10;;;;;;;21.16;48.37;100078.16;6202179;22;20019;-66
2022/08/16 02:32:48;;;;;;;10.38;6.50;;;;;;;21.07;48.56;100077.31;6228419;22;20027;-65
2022/08/16 02:35:14;;;;;;;14.90;6.15;;;;;;;21.06;48.61;100081.03;6201406;22;20015;-65
2022/08/16 02:37:39;;;;;;;11.50;6.15;;;;;;;21.05;48.56;100082.03;6201760;22;20486;-66
2022/08/16 02:40:04;;;;;;;8.55;5.82;;;;;;;21.02;48.77;100082.34;6177020;22;20455;-66
2022/08/16 02:42:29;;;;;;;12.13;6.22;;;;;;;21.08;48.93;100081.72;6229430;22;20114;-66
2022/08/16 02:44:54;;;;;;;9.05;6.22;;;;;;;21.12;48.78;100083.06;6202079;22;20051;-65
2022/08/16 02:47:19;;;;;;;8.00;6.53;;;;;;;21.18;48.73;100085.16;6175725;22;20016;-68
2022/08/16 02:49:44;;;;;;;8.07;5.50;;;;;;;21.13;48.66;100084.75;6202225;22;20023;-68
2022/08/16 02:52:10;;;;;;;11.50;6.47;;;;;;;21.15;48.55;100088.16;6201941;22;20350;-67
2022/08/16 02:54:36;;;;;;;13.98;6.93;;;;;;;21.20;48.60;100091.25;6176373;22;20390;-66
2022/08/16 02:57:01;;;;;;;10.40;5.97;;;;;;;21.15;48.70;100095.44;6176658;22;20386;-65
2022/08/16 02:59:26;;;;;;;12.05;6.28;;;;;;;21.16;48.81;100084.44;6176493;22;20387;-64
2022/08/16 03:01:51;;;;;;;9.07;5.97;;;;;;;21.10;49.00;100093.25;6201299;22;20043;-65
2022/08/16 03:04:24;;;;;;;8.90;5.43;;;;;;;21.10;48.86;100095.94;6201687;22;20020;-65
2022/08/16 03:06:50;;;;;;;15.43;6.80;;;;;;;21.07;48.87;100093.56;6228469;22;20050;-65
2022/08/16 03:09:19;;;;;;;11.15;5.88;;;;;;;21.25;48.69;100109.72;6201729;22;20035;-65
2022/08/16 03:11:49;;;;;;;11.10;5.85;;;;;;;21.24;48.90;100094.47;6175978;22;20066;-65
2022/08/16 03:14:14;;;;;;;12.23;6.05;;;;;;;21.33;48.79;100098.91;6201571;22;20060;-65
2022/08/16 03:16:39;;;;;;;7.43;5.65;;;;;;;21.30;49.16;100099.22;6201727;22;20022;-64
2022/08/16 03:19:07;;;;;;;10.30;5.78;;;;;;;21.32;49.14;100098.06;6200726;22;20336;-64
2022/08/16 03:21:32;;;;;;;12.50;6.00;;;;;;;21.41;48.38;100100.78;6150995;22;20020;-64
2022/08/16 03:23:59;;;;;;;12.15;6.32;;;;;;;21.40;48.66;100105.34;6201631;22;20016;-65
2022/08/16 03:26:24;;;;;;;13.15;6.65;;;;;;;21.46;48.98;100104.66;6176023;22;20095;-64
2022/08/16 03:28:50;;;;;;;13.05;6.22;;;;;;;21.62;47.89;100099.25;6201442;22;20073;-64
2022/08/16 03:31:15;;;;;;;10.57;6.53;;;;;;;21.68;48.02;100101.28;6201517;22;20019;-64
2022/08/16 03:33:40;;;;;;;10.60;6.25;;;;;;;21.77;47.95;100102.16;6228816;22;20039;-65
2022/08/16 03:36:05;;;;;;;12.02;6.68;;;;;;;21.84;47.79;100114.00;6175803;22;20355;-64
2022/08/16 03:38:35;;;;;;;12.98;5.60;;;;;;;21.94;46.95;100101.09;6202164;22;20089;-65
2022/08/16 03:41:06;;;;;;;10.60;5.90;;;;;;;22.01;47.43;100104.84;6175984;22;20022;-64
2022/08/16 03:43:32;;;;;;;10.27;6.30;;;;;;;22.16;46.80;100106.88;6201534;22;20019;-65
2022/08/16 03:45:57;;;;;;;11.18;6.47;;;;;;;22.24;47.08;100115.00;6201612;22;20027;-65
2022/08/16 03:48:32;;;;;;;11.63;6.15;;;;;;;22.32;47.10;100107.69;6176245;22;20758;-64
2022/08/16 03:51:01;;;;;;;11.63;6.05;;;;;;;22.38;46.45;100111.56;6176460;22;20034;-65
2022/08/16 03:53:30;;;;;;;11.02;6.07;;;;;;;22.41;46.20;100105.78;6201293;22;20050;-64
2022/08/16 03:55:55;;;;;;;14.32;6.03;;;;;;;22.41;46.89;100101.22;6201337;22;20019;-63
2022/08/16 03:58:20;;;;;;;9.68;5.50;;;;;;;22.44;46.86;100108.19;6176472;22;20324;-64
2022/08/16 04:00:45;;;;;;;16.95;6.85;;;;;;;22.56;46.38;100106.78;6178558;22;20023;-65
2022/08/16 04:03:15;;;;;;;12.23;6.63;;;;;;;22.69;46.43;100111.63;6202874;22;20467;-64
2022/08/16 04:05:44;;;;;;;9.52;6.13;;;;;;;22.77;45.81;100109.78;6230667;22;20047;-65
2022/08/16 04:08:12;;;;;;;10.05;6.60;;;;;;;22.92;45.90;100106.28;6087703;23;20017;-64
2022/08/16 04:10:38;;;;;;;11.63;6.72;;;;;;;23.09;44.80;100106.03;6087784;23;20040;-63
2022/08/16 04:13:04;;;;;;;12.00;6.75;;;;;;;23.23;44.71;100092.69;6087699;23;20088;-64
2022/08/16 04:15:29;;;;;;;8.95;5.85;;;;;;;23.48;44.48;100103.22;6112431;23;20025;-66
2022/08/16 04:18:08;;;;;;;19.73;6.32;;;;;;;23.73;43.86;100101.19;6136901;23;20017;-66
2022/08/16 04:20:34;;;;;;;15.95;6.38;;;;;;;23.94;43.46;100105.06;6137226;23;20021;-66
2022/08/16 04:23:02;;;;;;;8.40;6.25;;;;;;;24.18;43.46;100108.41;6112143;23;20013;-65
2022/08/16 04:25:29;;;;;;;10.25;5.60;;;;;;;24.49;42.27;100102.81;6136759;23;20440;-64
2022/08/16 04:27:55;;;;;;;12.68;6.70;;;;;;;24.71;41.69;100103.78;6111979;23;20020;-64
2022/08/16 04:30:23;;;;;;;12.70;5.50;;;;;;;24.85;41.94;100108.34;6112429;23;20352;-64
2022/08/16 04:32:49;;;;;;;10.35;5.93;;;;;;;25.06;41.66;100110.31;6111504;23;20025;-64
2022/08/16 04:35:17;;;;;;;10.50;6.47;;;;;;;25.22;41.00;100114.72;6137024;23;20506;-66
2022/08/16 04:37:44;;;;;;;11.75;6.22;;;;;;;25.41;40.59;100113.22;6112179;23;20017;-65
2022/08/16 04:40:17;;;;;;;9.15;6.32;;;;;;;25.42;40.24;100120.38;6197984;22;20015;-65
2022/08/16 04:42:44;;;;;;;8.02;6.03;;;;;;;25.50;40.11;100109.34;6202931;22;20043;-66
2022/08/16 04:45:13;;;;;;;9.95;6.10;;;;;;;25.68;39.64;100120.69;6202952;22;20015;-66
2022/08/16 04:47:40;;;;;;;15.82;6.65;;;;;;;25.81;38.95;100115.34;6229922;22;20102;-65
2022/08/16 04:50:14;;;;;;;10.25;6.30;;;;;;;25.87;39.46;100113.69;6203620;22;20015;-64
2022/08/16 04:52:56;;;;;;;10.30;6.10;;;;;;;25.95;39.52;100111.69;6178054;22;20102;-64
2022/08/16 04:55:24;;;;;;;11.10;5.32;;;;;;;25.84;38.91;100119.56;6177705;22;20027;-64
2022/08/16 04:57:53;;;;;;;8.88;5.82;;;;;;;25.81;39.28;100125.44;6230097;22;20011;-64
2022/08/16 05:00:22;;;;;;;13.30;6.72;;;;;;;25.95;39.55;100124.50;6178009;22;20477;-65
2022/08/16 05:02:50;;;;;;;11.23;5.68;;;;;;;26.28;38.87;100119.34;6229961;22;20015;-65
2022/08/16 05:05:14;;;;;;;8.38;5.57;;;;;;;26.68;38.65;100114.94;6230261;22;20026;-65
2022/08/16 05:07:39;;;;;;;10.05;6.03;;;;;;;26.72;37.16;100116.22;6202078;22;20094;-65
2022/08/16 05:10:06;;;;;;;12.13;6.05;;;;;;;26.61;37.75;100112.19;6202083;22;20039;-64
2022/08/16 05:12:32;;;;;;;12.18;6.60;;;;;;;26.76;37.15;100104.66;6177268;22;20065;-65
2022/08/16 05:14:57;;;;;;;10.32;6.00;;;;;;;26.81;37.10;100101.34;6202566;22;20019;-65
2022/08/16 05:17:23;;;;;;;10.57;5.75;;;;;;;26.84;37.79;100111.03;6202927;22;20066;-65
2022/08/16 05:19:48;;;;;;;9.57;6.18;;;;;;;26.92;36.93;100113.59;6202523;22;20460;-65
2022/08/16 05:22:14;;;;;;;13.20;5.80;;;;;;;27.13;36.33;100113.50;6177262;22;20068;-65
2022/08/16 05:24:40;;;;;;;9.00;5.88;;;;;;;27.02;36.26;100109.44;6202614;22;20039;-66
2022/08/16 05:27:06;;;;;;;12.05;6.90;;;;;;;26.92;36.80;100113.59;6229347;22;20069;-65
2022/08/16 05:29:30;;;;;;;9.63;5.82;;;;;;;26.93;36.49;100109.84;6176731;22;20016;-65
2022/08/16 05:32:04;;;;;;;11.40;7.10;;;;;;;27.08;36.64;100111.38;6176538;22;20015;-65
2022/08/16 05:34:29;;;;;;;9.90;6.10;;;;;;;27.24;36.46;100118.38;6202760;22;20099;-64
2022/08/16 05:36:56;;;;;;;9.88;6.68;;;;;;;27.48;35.89;100116.94;6229333;22;20015;-63
2022/08/16 05:39:26;;;;;;;12.57;6.20;;;;;;;27.78;34.90;100118.28;6178107;22;20023;-64
2022/08/16 05:41:53;;;;;;;13.65;6.20;;;;;;;28.04;35.06;100100.16;6201786;22;20022;-63
2022/08/16 05:44:20;;;;;;;12.63;6.13;;;;;;;28.49;34.27;100113.00;6202456;22;20412;-65
2022/08/16 05:46:45;;;;;;;13.18;6.32;;;;;;;28.91;33.51;100105.31;6201996;22;20142;-66
2022/08/16 05:49:15;;;;;;;9.73;5.63;;;;;;;29.34;32.29;100115.69;6202447;22;20482;-63
2022/08/16 05:51:42;;;;;;;8.90;6.05;;;;;;;29.07;33.27;100104.81;6202127;22;20328;-63
2022/08/16 05:54:12;;;;;;;10.10;5.97;;;;;;;29.26;33.02;100119.50;6176554;22;20053;-63
2022/08/16 05:56:38;;;;;;;9.27;5.68;;;;;;;29.70;32.20;100106.78;6202299;22;20520;-64
2022/08/16 05:59:04;;;;;;;9.88;6.32;;;;;;;30.20;31.12;100118.69;6176813;22;20015;-63
2022/08/16 06:01:29;;;;;;;9.43;6.40;;;;;;;30.18;31.19;100112.56;6229007;22;20015;-63
2022/08/16 06:03:54;;;;;;;8.75;6.25;;;;;;;30.10;31.35;100112.84;6202256;22;20443;-63
2022/08/16 06:06:29;;;;;;;16.02;6.45;;;;;;;30.50;31.05;100116.88;6201964;22;20023;-62
2022/08/16 06:08:56;;;;;;;13.43;6.07;;;;;;;30.95;30.76;100111.09;6201778;22;20072;-63
2022/08/16 06:11:21;;;;;;;17.58;7.97;;;;;;;31.05;30.06;100111.41;6176696;22;20015;-63
2022/08/16 06:13:52;;;;;;;10.57;6.68;;;;;;;31.10;30.32;100108.00;6177043;22;20011;-64
2022/08/16 06:16:26;;;;;;;9.93;6.13;;;;;;;31.51;29.79;100121.81;6202014;22;20016;-64
2022/08/16 06:18:51;;;;;;;12.43;7.05;;;;;;;32.20;28.63;100114.00;6176588;22;20022;-64
2022/08/16 06:21:17;;;;;;;8.35;5.90;;;;;;;32.45;27.80;100126.47;6176553;22;20118;-64
2022/08/16 06:23:43;;;;;;;8.15;5.85;;;;;;;32.52;27.75;100114.47;6176580;22;20019;-64
2022/08/16 06:26:09;;;;;;;10.05;6.07;;;;;;;32.16;28.33;100121.06;6201769;22;20020;-65
2022/08/16 06:28:40;;;;;;;12.45;6.47;;;;;;;31.90;28.46;100123.16;6202052;22;20020;-65
2022/08/16 06:31:13;;;;;;;8.80;5.95;;;;;;;31.89;28.70;100127.00;6202260;22;20099;-65
2022/08/16 06:33:42;;;;;;;10.30;5.80;;;;;;;32.35;28.45;100122.63;6201971;22;20075;-65
2022/08/16 06:36:10;;;;;;;9.70;6.15;;;;;;;33.28;26.90;100133.59;6176945;22;20023;-65
2022/08/16 06:38:36;;;;;;;9.20;6.18;;;;;;;33.51;26.81;100122.44;6201338;22;20043;-65
2022/08/16 06:41:10;;;;;;;9.98;6.22;;;;;;;34.37;25.76;100123.09;6202471;22;20019;-64
2022/08/16 06:43:36;;;;;;;8.40;6.32;;;;;;;35.26;24.96;100131.28;6201834;22;20022;-65
2022/08/16 06:46:09;;;;;;;12.23;6.15;;;;;;;36.11;23.76;100122.19;6202468;22;20020;-65
2022/08/16 06:48:34;;;;;;;9.23;5.85;;;;;;;36.83;22.19;100116.00;6175943;22;20022;-64
2022/08/16 06:51:03;;;;;;;11.32;6.10;;;;;;;36.87;22.07;100131.06;6176423;22;20022;-68
2022/08/16 06:53:30;;;;;;;12.02;6.07;;;;;;;36.60;21.79;100114.47;6176602;22;20106;-65
2022/08/16 06:55:58;;;;;;;10.20;6.75;;;;;;;37.14;21.82;100121.69;6176478;22;20074;-64
2022/08/16 06:58:30;;;;;;;11.38;5.50;;;;;;;37.70;21.30;100137.47;6176433;22;20149;-64
2022/08/16 07:01:01;;;;;;;8.52;6.25;;;;;;;36.70;21.86;100113.72;6152481;22;20078;-64
2022/08/16 07:03:29;;;;;;;8.88;6.47;;;;;;;35.99;22.65;100116.81;6201399;22;20030;-64
2022/08/16 07:05:55;;;;;;;13.02;6.75;;;;;;;36.23;22.29;100114.50;6201761;22;20016;-64
2022/08/16 07:08:28;;;;;;;10.93;6.05;;;;;;;37.01;21.47;100114.72;6201721;22;20019;-65
2022/08/16 07:10:54;;;;;;;11.57;6.72;;;;;;;37.28;20.92;100114.53;6201704;22;20085;-65
2022/08/16 07:13:20;;;;;;;12.65;7.13;;;;;;;37.70;20.70;100115.22;6176515;22;20019;-66
2022/08/16 07:15:45;;;;;;;7.82;6.22;;;;;;;38.42;20.21;100119.69;6176721;22;20470;-66
2022/08/16 07:18:10;;;;;;;11.60;6.75;;;;;;;38.84;19.57;100163.06;6202139;22;20011;-64
2022/08/16 07:20:36;;;;;;;9.50;7.25;;;;;;;39.27;19.03;100108.56;6176386;22;20390;-64
2022/08/16 07:23:02;;;;;;;9.77;6.90;;;;;;;39.71;18.90;100125.34;6201739;22;20023;-65
2022/08/16 07:25:37;;;;;;;11.30;6.25;;;;;;;40.19;18.48;100129.13;6202336;22;20016;-66
2022/08/16 07:28:03;;;;;;;10.48;6.28;;;;;;;39.68;17.71;100137.06;6201770;22;20022;-65
2022/08/16 07:30:30;;;;;;;8.13;5.30;;;;;;;38.97;18.41;100133.78;6201935;22;20027;-65
2022/08/16 07:32:58;;;;;;;12.38;5.82;;;;;;;38.33;18.90;100132.50;6176265;22;20016;-65
2022/08/16 07:35:24;;;;;;;11.18;6.43;;;;;;;38.04;19.20;100131.38;6201724;22;20019;-64
2022/08/16 07:37:49;;;;;;;9.38;6.38;;;;;;;37.56;19.51;100127.13;6201771;22;20625;-65
2022/08/16 07:40:22;;;;;;;10.10;5.90;;;;;;;37.18;19.95;100123.69;6178337;22;20050;-64
2022/08/16 07:42:47;;;;;;;8.75;5.82;;;;;;;36.58;20.62;100124.16;6201961;22;20023;-64
2022/08/16 07:45:11;;;;;;;9.55;6.63;;;;;;;36.52;21.21;100120.53;6227817;22;20019;-65
2022/08/16 07:47:43;;;;;;;8.73;5.47;;;;;;;36.94;20.25;100137.19;6202015;22;20047;-65
2022/08/16 07:50:09;;;;;;;7.32;5.93;;;;;;;37.05;20.09;100133.34;6175575;22;20358;-65
2022/08/16 07:52:34;;;;;;;6.72;5.07;;;;;;;36.80;20.39;100124.88;6201557;22;20418;-66
2022/08/16 07:54:59;;;;;;;10.77;5.60;;;;;;;36.89;20.56;100117.72;6201453;22;20336;-64
2022/08/16 07:57:24;;;;;;;7.90;5.68;;;;;;;37.36;19.80;100114.84;6228429;22;20047;-66
2022/08/16 07:59:51;;;;;;;12.00;6.35;;;;;;;36.83;20.61;100117.94;6201139;22;20353;-64
2022/08/16 08:02:17;;;;;;;8.75;6.63;;;;;;;37.03;20.29;100106.91;6201962;22;20026;-65
2022/08/16 08:04:42;;;;;;;8.63;5.72;;;;;;;37.58;19.92;100111.00;6151020;22;20352;-64
2022/08/16 08:07:07;;;;;;;8.88;6.30;;;;;;;37.62;20.09;100117.72;6201390;22;20047;-64
2022/08/16 08:09:33;;;;;;;10.05;6.32;;;;;;;38.30;19.56;100115.53;6176063;22;20015;-64
2022/08/16 08:11:58;;;;;;;7.78;5.90;;;;;;;38.94;18.64;100126.00;6201390;22;20023;-65
2022/08/16 08:14:23;;;;;;;10.60;6.90;;;;;;;38.38;18.74;100112.16;6228402;22;20023;-66
2022/08/16 08:16:49;;;;;;;8.52;6.45;;;;;;;38.50;19.41;100109.91;6176638;22;20043;-65
2022/08/16 08:19:26;;;;;;;11.82;6.57;;;;;;;39.66;18.45;100116.97;6201418;22;20015;-65
2022/08/16 08:21:53;;;;;;;13.25;7.05;;;;;;;40.32;17.51;100108.09;6228754;22;20020;-65
2022/08/16 08:24:22;;;;;;;8.98;6.97;;;;;;;40.35;17.23;100110.31;6202214;22;20019;-65
2022/08/16 08:26:49;;;;;;;13.90;6.57;;;;;;;41.01;16.72;100114.34;6201556;22;20090;-65
2022/08/16 08:29:14;;;;;;;8.40;5.63;;;;;;;40.75;16.44;100122.22;6202031;22;20043;-65
2022/08/16 08:31:41;;;;;;;10.60;6.70;;;;;;;40.03;17.12;100121.19;6201690;22;20043;-66
2022/08/16 08:34:07;;;;;;;10.38;7.22;;;;;;;40.08;16.92;100141.53;6151806;22;20019;-65
2022/08/16 08:36:35;;;;;;;7.72;6.70;;;;;;;39.24;17.29;100113.88;6201835;22;20351;-66
2022/08/16 08:39:11;;;;;;;6.90;6.03;;;;;;;38.88;17.55;100100.06;6202007;22;20559;-66
2022/08/16 08:41:35;;;;;;;8.43;6.60;;;;;;;39.19;17.55;100101.63;6202173;22;20019;-65
2022/08/16 08:44:01;;;;;;;7.05;6.28;;;;;;;39.83;17.18;100097.88;6201844;22;20115;-66
2022/08/16 08:46:26;;;;;;;10.85;6.45;;;;;;;39.78;16.83;100092.31;6229840;22;20046;-64
2022/08/16 08:48:53;;;;;;;10.63;6.50;;;;;;;39.71;16.95;100093.78;6203023;22;20015;-66
2022/08/16 08:51:18;;;;;;;8.63;7.05;;;;;;;39.10;17.56;100094.13;6203457;22;20027;-66
2022/08/16 08:53:52;;;;;;;10.25;6.78;;;;;;;39.30;17.75;100095.97;6230984;22;20026;-65
2022/08/16 08:56:17;;;;;;;10.48;6.72;;;;;;;39.70;18.10;100095.75;6178054;22;20463;-65
2022/08/16 08:58:42;;;;;;;11.68;7.47;;;;;;;40.35;17.03;100096.34;6177909;22;20020;-66
2022/08/16 09:01:22;;;;;;;9.25;7.50;;;;;;;40.77;17.28;100097.56;6203346;22;20466;-65
2022/08/16 09:03:47;;;;;;;7.65;6.90;;;;;;;41.84;16.38;100102.53;6177371;22;20522;-68
2022/08/16 09:06:11;;;;;;;8.30;7.18;;;;;;;42.95;15.38;100124.91;6230351;22;20355;-66
2022/08/16 09:08:39;;;;;;;14.30;7.40;;;;;;;43.32;14.39;100101.41;6230386;22;20020;-66
2022/08/16 09:11:08;;;;;;;8.95;7.88;;;;;;;44.06;14.19;100099.06;6230168;22;20015;-66
2022/08/16 09:13:36;;;;;;;9.10;8.27;;;;;;;44.19;13.62;100111.41;6203102;22;20026;-67
2022/08/16 09:16:02;;;;;;;10.65;7.60;;;;;;;44.16;13.81;100115.66;6202054;22;20019;-67
2022/08/16 09:18:29;;;;;;;8.70;8.00;;;;;;;43.97;14.05;100104.66;6229916;22;20086;-67
2022/08/16 09:20:54;;;;;;;9.38;8.43;;;;;;;44.27;13.74;100111.44;6176979;22;20015;-67
2022/08/16 09:23:19;;;;;;;8.93;8.07;;;;;;;44.49;13.38;100100.16;6203146;22;20020;-66
2022/08/16 09:25:44;;;;;;;16.38;9.27;;;;;;;45.31;13.43;100111.88;6202912;22;20177;-67
2022/08/16 09:28:14;;;;;;;9.80;8.35;;;;;;;45.46;13.09;100105.78;6203169;22;20061;-67
2022/08/16 09:30:44;;;;;;;9.65;8.65;;;;;;;45.04;12.94;100110.19;6178137;22;20031;-66
2022/08/16 09:33:11;;;;;;;9.00;8.18;;;;;;;44.59;13.20;100115.13;6229714;22;20015;-66
2022/08/16 09:35:36;;;;;;;9.98;8.60;;;;;;;44.51;12.89;100105.47;6202786;22;20023;-67
2022/08/16 09:38:02;;;;;;;9.77;8.88;;;;;;;44.65;13.09;100106.19;6230296;22;20011;-66
2022/08/16 09:40:27;;;;;;;10.68;8.90;;;;;;;45.47;12.85;100099.00;6230254;22;20098;-67
2022/08/16 09:42:54;;;;;;;11.70;8.60;;;;;;;46.16;11.94;100113.91;6203127;22;20015;-66
2022/08/16 09:45:20;;;;;;;9.90;8.85;;;;;;;46.01;12.01;100111.63;6203188;22;20368;-67
2022/08/16 09:47:45;;;;;;;10.90;9.98;;;;;;;45.33;12.32;100093.53;6229918;22;20449;-68
2022/08/16 09:50:12;;;;;;;10.32;8.65;;;;;;;44.60;12.99;100106.34;6202644;22;20015;-66
2022/08/16 09:52:37;;;;;;;12.40;9.70;;;;;;;44.13;13.57;100097.50;6229972;22;20039;-66
2022/08/16 09:55:11;;;;;;;9.50;7.88;;;;;;;44.02;13.71;100093.25;6176517;22;20015;-65
2022/08/16 09:57:36;;;;;;;9.27;8.38;;;;;;;43.05;13.98;100094.66;6177137;22;20429;-66
2022/08/16 10:00:06;;;;;;;8.38;7.63;;;;;;;42.78;14.37;100096.69;6177174;22;20556;-67
2022/08/16 10:02:38;;;;;;;10.95;8.07;;;;;;;42.27;14.62;100092.00;6202526;22;20122;-66
2022/08/16 10:05:03;;;;;;;8.35;7.32;;;;;;;41.46;15.29;100084.91;6202833;22;20416;-66
2022/08/16 10:07:29;;;;;;;9.05;7.85;;;;;;;41.16;15.29;100095.41;6177290;22;20026;-66
2022/08/16 10:09:54;;;;;;;11.63;7.60;;;;;;;41.36;15.50;100082.25;6202459;22;20015;-66
2022/08/16 10:15:03;;;;;;;7.45;6.78;;;;;;;40.93;15.50;100085.06;6176209;22;20478;-66
2022/08/16 10:17:28;;;;;;;9.93;7.18;;;;;;;40.05;16.39;100077.06;6228526;22;20015;-66
2022/08/16 10:19:54;;;;;;;8.48;6.90;;;;;;;38.94;17.57;100086.97;6228553;22;20469;-66
2022/08/16 10:22:18;;;;;;;11.05;7.28;;;;;;;38.42;18.40;100069.53;6150287;22;20445;-66
2022/08/16 10:24:43;;;;;;;11.00;6.50;;;;;;;37.46;19.03;100077.06;6201526;22;20385;-67
2022/08/16 10:27:10;;;;;;;12.85;6.57;;;;;;;36.56;19.25;100063.34;6228434;22;20386;-67
2022/08/16 10:29:35;;;;;;;8.98;5.93;;;;;;;35.43;20.27;100070.19;6175980;22;20035;-69
2022/08/16 10:32:00;;;;;;;12.23;6.57;;;;;;;34.45;21.37;100086.66;6228302;22;20027;-66
2022/08/16 10:34:24;;;;;;;9.05;6.32;;;;;;;33.24;23.19;100071.59;6201912;22;20015;-65
2022/08/16 10:36:49;;;;;;;7.40;5.90;;;;;;;32.64;23.54;100060.91;6228384;22;20007;-65
2022/08/16 10:39:14;;;;;;;14.15;6.68;;;;;;;32.41;24.14;100066.47;6228435;22;20029;-66
2022/08/16 10:41:39;;;;;;;9.13;6.22;;;;;;;32.10;24.11;100067.66;6229193;22;20069;-68
2022/08/16 10:44:05;;;;;;;12.68;5.75;;;;;;;31.65;25.16;100070.97;6228973;22;20019;-66
2022/08/16 10:46:30;;;;;;;8.75;6.30;;;;;;;31.28;25.76;100053.69;6227480;22;20039;-66
2022/08/16 10:48:55;;;;;;;9.88;6.82;;;;;;;30.92;26.51;100053.78;6175946;22;20020;-66
2022/08/16 10:51:20;;;;;;;10.70;6.05;;;;;;;30.88;26.58;100056.13;6176238;22;20094;-74
2022/08/16 10:53:45;;;;;;;7.95;5.80;;;;;;;30.67;27.29;100053.88;6229534;22;20043;-65
2022/08/16 10:56:11;;;;;;;8.13;6.15;;;;;;;30.64;27.37;100057.91;6202620;22;20020;-67
2022/08/16 10:58:38;;;;;;;7.28;5.85;;;;;;;30.62;27.12;100045.44;6202214;22;20034;-71
2022/08/16 11:01:05;;;;;;;10.25;6.65;;;;;;;30.42;27.49;100050.31;6177447;22;20072;-70
2022/08/16 11:03:30;;;;;;;12.15;6.40;;;;;;;30.26;27.75;100051.75;6176699;22;20051;-66
2022/08/16 11:05:55;;;;;;;10.18;6.80;;;;;;;30.02;28.10;100049.91;6150162;22;20020;-67
2022/08/16 11:08:22;;;;;;;11.80;6.80;;;;;;;29.74;28.35;100051.16;6228575;22;20089;-68
2022/08/16 11:10:46;;;;;;;8.57;6.35;;;;;;;29.41;28.58;100047.81;6228526;22;20097;-67
2022/08/16 11:13:24;;;;;;;7.28;5.78;;;;;;;29.39;28.62;100042.56;6201086;22;20015;-66
2022/08/16 11:15:49;;;;;;;7.75;5.82;;;;;;;29.17;29.31;100036.53;6201920;22;20025;-66
2022/08/16 11:18:14;;;;;;;11.00;6.53;;;;;;;29.17;29.23;100031.03;6228414;22;20021;-67
2022/08/16 11:20:40;;;;;;;11.02;6.10;;;;;;;29.22;29.47;100047.72;6201711;22;20073;-63
2022/08/16 11:23:04;;;;;;;9.05;6.30;;;;;;;29.12;29.48;100036.34;6229316;22;20016;-64